sensor_id;sensor_type;location;lat;lon;timestamp;temperature;humidity
21282;DHT22;10800;53.096;18.328;2022-09-21T00:04:53;9.60;99.90
21282;DHT22;10800;53.096;18.328;2022-09-21T00:10:18;9.70;99.90
21282;DHT22;10800;53.096;18.328;2022-09-21T00:15:47;9.80;99.90
21282;DHT22;10800;53.096;18.328;2022-09-21T00:21:28;9.90;99.90
21282;DHT22;10800;53.096;18.328;2022-09-21T00:26:24;9.90;99.90
21282;DHT22;10800;53.096;18.328;2022-09-21T00:31:36;10.00;99.90
21282;DHT22;10800;53.096;18.328;2022-09-21T00:37:12;10.00;99.90
21282;DHT22;10800;53.096;18.328;2022-09-21T00:42:32;10.10;99.90
21282;DHT22;10800;53.096;18.328;2022-09-21T00:47:47;10.20;99.90
21282;DHT22;10800;53.096;18.328;2022-09-21T00:53:10;10.30;99.90
21282;DHT22;10800;53.096;18.328;2022-09-21T00:58:30;10.30;99.90
21282;DHT22;10800;53.096;18.328;2022-09-21T01:03:48;10.40;99.90
21282;DHT22;10800;53.096;18.328;2022-09-21T01:09:03;10.40;99.90
21282;DHT22;10800;53.096;18.328;2022-09-21T01:14:30;10.50;99.90
21282;DHT22;10800;53.096;18.328;2022-09-21T01:20:00;10.40;99.90
21282;DHT22;10800;53.096;18.328;2022-09-21T01:25:26;10.50;99.90
21282;DHT22;10800;53.096;18.328;2022-09-21T01:30:43;10.40;99.90
21282;DHT22;10800;53.096;18.328;2022-09-21T01:36:03;10.50;99.90
21282;DHT22;10800;53.096;18.328;2022-09-21T01:41:17;10.50;99.90
21282;DHT22;10800;53.096;18.328;2022-09-21T01:46:32;10.50;99.90
21282;DHT22;10800;53.096;18.328;2022-09-21T02:03:13;10.50;99.90
21282;DHT22;10800;53.096;18.328;2022-09-21T02:08:28;10.50;99.90
21282;DHT22;10800;53.096;18.328;2022-09-21T02:14:08;10.50;99.90
21282;DHT22;10800;53.096;18.328;2022-09-21T02:19:30;10.40;99.90
21282;DHT22;10800;53.096;18.328;2022-09-21T02:30:23;10.20;99.90
21282;DHT22;10800;53.096;18.328;2022-09-21T02:41:41;10.10;99.90
21282;DHT22;10800;53.096;18.328;2022-09-21T02:47:26;10.00;99.90
21282;DHT22;10800;53.096;18.328;2022-09-21T02:53:27;9.80;99.90
21282;DHT22;10800;53.096;18.328;2022-09-21T02:59:13;9.70;99.90
21282;DHT22;10800;53.096;18.328;2022-09-21T03:04:39;9.60;99.90
21282;DHT22;10800;53.096;18.328;2022-09-21T03:09:56;9.60;99.90
21282;DHT22;10800;53.096;18.328;2022-09-21T03:15:17;9.50;99.90
21282;DHT22;10800;53.096;18.328;2022-09-21T03:20:21;9.50;99.90
21282;DHT22;10800;53.096;18.328;2022-09-21T03:25:30;9.50;99.90
21282;DHT22;10800;53.096;18.328;2022-09-21T03:30:36;9.50;99.90
21282;DHT22;10800;53.096;18.328;2022-09-21T03:35:50;9.40;99.90
21282;DHT22;10800;53.096;18.328;2022-09-21T03:40:56;9.40;99.90
21282;DHT22;10800;53.096;18.328;2022-09-21T03:46:02;9.40;99.90
21282;DHT22;10800;53.096;18.328;2022-09-21T03:51:15;9.30;99.90
21282;DHT22;10800;53.096;18.328;2022-09-21T03:56:22;9.30;99.90
21282;DHT22;10800;53.096;18.328;2022-09-21T04:01:29;9.20;99.90
21282;DHT22;10800;53.096;18.328;2022-09-21T04:06:38;9.20;99.90
21282;DHT22;10800;53.096;18.328;2022-09-21T04:11:45;9.00;99.90
21282;DHT22;10800;53.096;18.328;2022-09-21T04:16:51;8.90;99.90
21282;DHT22;10800;53.096;18.328;2022-09-21T04:21:58;8.80;99.90
21282;DHT22;10800;53.096;18.328;2022-09-21T04:27:11;8.70;99.90
21282;DHT22;10800;53.096;18.328;2022-09-21T04:32:17;8.70;99.90
21282;DHT22;10800;53.096;18.328;2022-09-21T04:37:23;8.60;99.90
21282;DHT22;10800;53.096;18.328;2022-09-21T04:42:34;8.70;99.90
21282;DHT22;10800;53.096;18.328;2022-09-21T04:53:41;9.00;99.90
21282;DHT22;10800;53.096;18.328;2022-09-21T04:59:41;9.20;99.90
21282;DHT22;10800;53.096;18.328;2022-09-21T05:04:54;9.40;99.90
21282;DHT22;10800;53.096;18.328;2022-09-21T05:10:38;9.50;99.90
21282;DHT22;10800;53.096;18.328;2022-09-21T05:15:52;9.70;99.90
21282;DHT22;10800;53.096;18.328;2022-09-21T05:21:45;9.80;99.90
21282;DHT22;10800;53.096;18.328;2022-09-21T05:27:34;10.00;99.90
21282;DHT22;10800;53.096;18.328;2022-09-21T05:33:01;10.10;99.90
21282;DHT22;10800;53.096;18.328;2022-09-21T05:38:19;10.20;99.90
21282;DHT22;10800;53.096;18.328;2022-09-21T05:43:27;10.30;99.90
21282;DHT22;10800;53.096;18.328;2022-09-21T05:48:44;10.40;99.90
21282;DHT22;10800;53.096;18.328;2022-09-21T05:54:24;10.40;99.90
21282;DHT22;10800;53.096;18.328;2022-09-21T06:00:06;10.50;99.90
21282;DHT22;10800;53.096;18.328;2022-09-21T06:05:34;10.60;99.90
21282;DHT22;10800;53.096;18.328;2022-09-21T06:10:49;10.70;99.90
21282;DHT22;10800;53.096;18.328;2022-09-21T06:16:27;10.80;99.90
21282;DHT22;10800;53.096;18.328;2022-09-21T06:21:52;10.90;99.90
21282;DHT22;10800;53.096;18.328;2022-09-21T06:27:00;11.00;99.90
21282;DHT22;10800;53.096;18.328;2022-09-21T06:32:09;11.10;99.90
21282;DHT22;10800;53.096;18.328;2022-09-21T06:37:24;11.30;99.90
21282;DHT22;10800;53.096;18.328;2022-09-21T06:43:21;11.50;99.90
21282;DHT22;10800;53.096;18.328;2022-09-21T06:48:34;11.80;99.90
21282;DHT22;10800;53.096;18.328;2022-09-21T06:53:45;11.90;99.90
21282;DHT22;10800;53.096;18.328;2022-09-21T06:58:55;12.00;99.90
21282;DHT22;10800;53.096;18.328;2022-09-21T07:04:01;12.20;99.90
21282;DHT22;10800;53.096;18.328;2022-09-21T07:09:10;12.70;99.90
21282;DHT22;10800;53.096;18.328;2022-09-21T07:14:26;12.90;99.90
21282;DHT22;10800;53.096;18.328;2022-09-21T07:19:43;13.40;99.90
21282;DHT22;10800;53.096;18.328;2022-09-21T07:24:56;14.00;99.90
21282;DHT22;10800;53.096;18.328;2022-09-21T07:30:23;14.60;99.90
21282;DHT22;10800;53.096;18.328;2022-09-21T07:35:36;14.40;99.90
21282;DHT22;10800;53.096;18.328;2022-09-21T07:41:05;14.70;99.90
21282;DHT22;10800;53.096;18.328;2022-09-21T07:46:16;14.30;99.90
21282;DHT22;10800;53.096;18.328;2022-09-21T07:51:37;14.00;99.90
21282;DHT22;10800;53.096;18.328;2022-09-21T07:56:47;14.00;99.90
21282;DHT22;10800;53.096;18.328;2022-09-21T08:01:56;14.10;99.90
21282;DHT22;10800;53.096;18.328;2022-09-21T08:07:00;14.10;99.90
21282;DHT22;10800;53.096;18.328;2022-09-21T08:12:19;14.70;99.90
21282;DHT22;10800;53.096;18.328;2022-09-21T08:17:50;14.80;99.90
21282;DHT22;10800;53.096;18.328;2022-09-21T08:23:14;14.70;99.90
21282;DHT22;10800;53.096;18.328;2022-09-21T08:28:21;15.00;99.90
21282;DHT22;10800;53.096;18.328;2022-09-21T08:33:31;15.90;99.90
21282;DHT22;10800;53.096;18.328;2022-09-21T08:39:13;16.30;99.90
21282;DHT22;10800;53.096;18.328;2022-09-21T08:44:38;16.50;99.90
21282;DHT22;10800;53.096;18.328;2022-09-21T08:50:04;16.50;99.90
21282;DHT22;10800;53.096;18.328;2022-09-21T08:55:21;16.80;99.90
21282;DHT22;10800;53.096;18.328;2022-09-21T09:11:50;16.60;97.40
21282;DHT22;10800;53.096;18.328;2022-09-21T09:22:33;16.10;98.80
21282;DHT22;10800;53.096;18.328;2022-09-21T09:27:53;15.60;99.90
21282;DHT22;10800;53.096;18.328;2022-09-21T09:33:19;15.50;99.90
21282;DHT22;10800;53.096;18.328;2022-09-21T09:38:35;15.50;99.90
21282;DHT22;10800;53.096;18.328;2022-09-21T09:44:27;17.10;99.90
21282;DHT22;10800;53.096;18.328;2022-09-21T09:50:11;16.90;97.20
21282;DHT22;10800;53.096;18.328;2022-09-21T09:55:27;16.80;96.70
21282;DHT22;10800;53.096;18.328;2022-09-21T10:00:39;16.40;97.30
21282;DHT22;10800;53.096;18.328;2022-09-21T10:05:46;17.90;97.90
21282;DHT22;10800;53.096;18.328;2022-09-21T10:10:56;19.00;91.40
21282;DHT22;10800;53.096;18.328;2022-09-21T10:16:27;18.00;90.40
21282;DHT22;10800;53.096;18.328;2022-09-21T10:22:03;16.80;94.30
21282;DHT22;10800;53.096;18.328;2022-09-21T10:27:41;15.30;99.30
21282;DHT22;10800;53.096;18.328;2022-09-21T10:33:15;14.50;99.90
21282;DHT22;10800;53.096;18.328;2022-09-21T10:38:17;14.20;99.90
21282;DHT22;10800;53.096;18.328;2022-09-21T10:43:41;13.90;99.90
21282;DHT22;10800;53.096;18.328;2022-09-21T10:48:53;13.60;99.90
21282;DHT22;10800;53.096;18.328;2022-09-21T10:54:22;13.50;99.90
21282;DHT22;10800;53.096;18.328;2022-09-21T10:59:32;13.70;99.90
21282;DHT22;10800;53.096;18.328;2022-09-21T11:10:49;13.40;99.90
21282;DHT22;10800;53.096;18.328;2022-09-21T11:16:31;13.60;99.90
21282;DHT22;10800;53.096;18.328;2022-09-21T11:27:35;13.80;99.90
21282;DHT22;10800;53.096;18.328;2022-09-21T11:40:28;14.20;99.90
21282;DHT22;10800;53.096;18.328;2022-09-21T11:56:37;15.70;99.90
21282;DHT22;10800;53.096;18.328;2022-09-21T12:02:48;15.60;99.90
21282;DHT22;10800;53.096;18.328;2022-09-21T12:25:26;16.50;99.90
21282;DHT22;10800;53.096;18.328;2022-09-21T12:30:55;16.30;99.90
21282;DHT22;10800;53.096;18.328;2022-09-21T12:41:53;16.80;99.90
21282;DHT22;10800;53.096;18.328;2022-09-21T12:47:08;17.20;99.90
21282;DHT22;10800;53.096;18.328;2022-09-21T12:52:23;17.20;99.90
21282;DHT22;10800;53.096;18.328;2022-09-21T13:03:28;18.00;96.70
21282;DHT22;10800;53.096;18.328;2022-09-21T13:08:53;18.10;96.40
21282;DHT22;10800;53.096;18.328;2022-09-21T13:14:14;17.90;94.80
21282;DHT22;10800;53.096;18.328;2022-09-21T13:20:19;17.60;93.00
21282;DHT22;10800;53.096;18.328;2022-09-21T13:26:08;17.50;94.70
21282;DHT22;10800;53.096;18.328;2022-09-21T13:37:13;17.10;94.50
21282;DHT22;10800;53.096;18.328;2022-09-21T13:54:31;17.20;86.00
21282;DHT22;10800;53.096;18.328;2022-09-21T13:59:36;17.40;87.10
21282;DHT22;10800;53.096;18.328;2022-09-21T14:04:48;17.10;86.90
21282;DHT22;10800;53.096;18.328;2022-09-21T14:10:32;16.50;83.80
21282;DHT22;10800;53.096;18.328;2022-09-21T14:15:43;16.50;84.20
21282;DHT22;10800;53.096;18.328;2022-09-21T14:32:13;16.80;81.40
21282;DHT22;10800;53.096;18.328;2022-09-21T14:43:58;16.80;82.60
21282;DHT22;10800;53.096;18.328;2022-09-21T15:00:45;16.60;80.50
21282;DHT22;10800;53.096;18.328;2022-09-21T15:23:10;15.80;79.30
21282;DHT22;10800;53.096;18.328;2022-09-21T15:28:42;15.50;80.80
21282;DHT22;10800;53.096;18.328;2022-09-21T15:39:33;15.20;84.90
21282;DHT22;10800;53.096;18.328;2022-09-21T15:45:18;15.30;86.40
21282;DHT22;10800;53.096;18.328;2022-09-21T15:50:36;15.30;87.50
21282;DHT22;10800;53.096;18.328;2022-09-21T16:02:20;15.10;88.40
21282;DHT22;10800;53.096;18.328;2022-09-21T16:07:35;14.90;89.40
21282;DHT22;10800;53.096;18.328;2022-09-21T16:12:57;14.70;90.40
21282;DHT22;10800;53.096;18.328;2022-09-21T16:17:59;14.50;91.40
21282;DHT22;10800;53.096;18.328;2022-09-21T16:23:14;14.40;92.50
21282;DHT22;10800;53.096;18.328;2022-09-21T16:39:00;14.00;96.20
21282;DHT22;10800;53.096;18.328;2022-09-21T16:44:12;13.70;97.40
21282;DHT22;10800;53.096;18.328;2022-09-21T16:49:25;13.50;99.90
21282;DHT22;10800;53.096;18.328;2022-09-21T16:54:34;13.40;99.90
21282;DHT22;10800;53.096;18.328;2022-09-21T16:59:40;13.30;99.90
21282;DHT22;10800;53.096;18.328;2022-09-21T17:04:46;13.20;99.90
21282;DHT22;10800;53.096;18.328;2022-09-21T17:09:54;13.00;99.90
21282;DHT22;10800;53.096;18.328;2022-09-21T17:14:59;12.70;99.90
21282;DHT22;10800;53.096;18.328;2022-09-21T17:20:26;12.50;99.90
21282;DHT22;10800;53.096;18.328;2022-09-21T17:25:24;12.30;99.90
21282;DHT22;10800;53.096;18.328;2022-09-21T17:30:30;12.10;99.90
21282;DHT22;10800;53.096;18.328;2022-09-21T17:35:39;11.90;99.90
21282;DHT22;10800;53.096;18.328;2022-09-21T17:40:48;11.80;99.90
21282;DHT22;10800;53.096;18.328;2022-09-21T17:51:17;11.40;99.90
21282;DHT22;10800;53.096;18.328;2022-09-21T17:57:29;11.20;99.90
21282;DHT22;10800;53.096;18.328;2022-09-21T18:01:49;11.10;99.90
21282;DHT22;10800;53.096;18.328;2022-09-21T18:07:16;10.90;99.90
21282;DHT22;10800;53.096;18.328;2022-09-21T18:18:16;10.70;99.90
21282;DHT22;10800;53.096;18.328;2022-09-21T18:29:26;10.40;99.90
21282;DHT22;10800;53.096;18.328;2022-09-21T18:35:00;10.20;99.90
21282;DHT22;10800;53.096;18.328;2022-09-21T18:40:14;10.10;99.90
21282;DHT22;10800;53.096;18.328;2022-09-21T18:45:26;10.00;99.90
21282;DHT22;10800;53.096;18.328;2022-09-21T18:50:37;9.80;99.90
21282;DHT22;10800;53.096;18.328;2022-09-21T18:55:43;9.70;99.90
21282;DHT22;10800;53.096;18.328;2022-09-21T19:00:48;9.60;99.90
21282;DHT22;10800;53.096;18.328;2022-09-21T19:06:15;9.50;99.90
21282;DHT22;10800;53.096;18.328;2022-09-21T19:23:20;9.20;99.90
21282;DHT22;10800;53.096;18.328;2022-09-21T19:29:04;9.30;99.90
21282;DHT22;10800;53.096;18.328;2022-09-21T19:34:15;9.30;99.90
21282;DHT22;10800;53.096;18.328;2022-09-21T19:39:22;9.50;99.90
21282;DHT22;10800;53.096;18.328;2022-09-21T19:45:01;9.60;99.90
21282;DHT22;10800;53.096;18.328;2022-09-21T19:50:17;9.70;99.90
21282;DHT22;10800;53.096;18.328;2022-09-21T19:55:23;9.60;99.90
21282;DHT22;10800;53.096;18.328;2022-09-21T20:00:54;9.60;99.90
21282;DHT22;10800;53.096;18.328;2022-09-21T20:06:12;9.60;99.90
21282;DHT22;10800;53.096;18.328;2022-09-21T20:16:41;9.40;99.90
21282;DHT22;10800;53.096;18.328;2022-09-21T20:22:02;9.30;99.90
21282;DHT22;10800;53.096;18.328;2022-09-21T20:27:29;9.20;99.90
21282;DHT22;10800;53.096;18.328;2022-09-21T20:32:49;9.10;99.90
21282;DHT22;10800;53.096;18.328;2022-09-21T20:38:23;8.90;99.90
21282;DHT22;10800;53.096;18.328;2022-09-21T20:43:34;8.80;99.90
21282;DHT22;10800;53.096;18.328;2022-09-21T20:49:27;8.70;99.90
21282;DHT22;10800;53.096;18.328;2022-09-21T20:54:40;8.60;99.90
21282;DHT22;10800;53.096;18.328;2022-09-21T20:59:50;8.40;99.90
21282;DHT22;10800;53.096;18.328;2022-09-21T21:05:02;8.30;99.90
21282;DHT22;10800;53.096;18.328;2022-09-21T21:10:34;8.30;99.90
21282;DHT22;10800;53.096;18.328;2022-09-21T21:16:03;8.20;99.90
21282;DHT22;10800;53.096;18.328;2022-09-21T21:21:12;8.10;99.90
21282;DHT22;10800;53.096;18.328;2022-09-21T21:26:27;8.00;99.90
21282;DHT22;10800;53.096;18.328;2022-09-21T21:31:43;7.90;99.90
21282;DHT22;10800;53.096;18.328;2022-09-21T21:36:56;7.80;99.90
21282;DHT22;10800;53.096;18.328;2022-09-21T21:47:49;7.70;99.90
21282;DHT22;10800;53.096;18.328;2022-09-21T21:53:11;7.60;99.90
21282;DHT22;10800;53.096;18.328;2022-09-21T21:58:25;7.60;99.90
21282;DHT22;10800;53.096;18.328;2022-09-21T22:03:32;7.50;99.90
21282;DHT22;10800;53.096;18.328;2022-09-21T22:08:39;7.50;99.90
21282;DHT22;10800;53.096;18.328;2022-09-21T22:14:04;7.40;99.90
21282;DHT22;10800;53.096;18.328;2022-09-21T22:19:16;7.40;99.90
21282;DHT22;10800;53.096;18.328;2022-09-21T22:24:29;7.40;99.90
21282;DHT22;10800;53.096;18.328;2022-09-21T22:29:56;7.30;99.90
21282;DHT22;10800;53.096;18.328;2022-09-21T22:35:30;7.40;99.90
21282;DHT22;10800;53.096;18.328;2022-09-21T22:40:42;7.30;99.90
21282;DHT22;10800;53.096;18.328;2022-09-21T22:46:04;7.30;99.90
21282;DHT22;10800;53.096;18.328;2022-09-21T22:51:45;7.20;99.90
21282;DHT22;10800;53.096;18.328;2022-09-21T22:56:59;7.20;99.90
21282;DHT22;10800;53.096;18.328;2022-09-21T23:07:29;7.10;99.90
21282;DHT22;10800;53.096;18.328;2022-09-21T23:13:01;7.10;99.90
21282;DHT22;10800;53.096;18.328;2022-09-21T23:18:29;7.10;99.90
21282;DHT22;10800;53.096;18.328;2022-09-21T23:23:44;7.10;99.90
21282;DHT22;10800;53.096;18.328;2022-09-21T23:29:15;7.20;99.90
21282;DHT22;10800;53.096;18.328;2022-09-21T23:34:42;7.30;99.90
21282;DHT22;10800;53.096;18.328;2022-09-21T23:39:55;7.30;99.90
21282;DHT22;10800;53.096;18.328;2022-09-21T23:45:11;7.30;99.90
21282;DHT22;10800;53.096;18.328;2022-09-21T23:50:59;7.30;99.90
21282;DHT22;10800;53.096;18.328;2022-09-21T23:56:13;7.30;99.90
